createdAt,value
2022-08-17T00:01:52.039Z,22.00
2022-08-17T00:04:22.183Z,22.20
2022-08-17T00:06:53.657Z,22.20
2022-08-17T00:09:22.477Z,22.10
2022-08-17T00:12:42.317Z,22.00
2022-08-17T00:14:40.062Z,22.10
2022-08-17T00:17:10.426Z,22.20
2022-08-17T00:19:39.642Z,22.20
2022-08-17T00:22:31.530Z,22.20
2022-08-17T00:24:57.205Z,22.10
2022-08-17T00:27:26.077Z,22.40
2022-08-17T00:29:54.846Z,22.50
2022-08-17T00:33:13.794Z,22.50
2022-08-17T00:35:19.306Z,22.50
2022-08-17T00:37:48.156Z,22.20
2022-08-17T00:40:17.712Z,22.00
2022-08-17T00:42:48.204Z,21.70
2022-08-17T00:45:20.482Z,21.60
2022-08-17T00:47:50.926Z,21.70
2022-08-17T00:50:21.355Z,21.50
2022-08-17T00:52:55.278Z,21.40
2022-08-17T00:55:25.803Z,21.30
2022-08-17T00:57:58.867Z,21.20
2022-08-17T01:00:30.721Z,21.10
2022-08-17T01:03:06.491Z,21.00
2022-08-17T01:05:42.407Z,21.10
2022-08-17T01:08:14.626Z,21.10
2022-08-17T01:10:58.921Z,21.20
2022-08-17T01:13:39.721Z,21.20
2022-08-17T01:16:16.825Z,21.10
2022-08-17T01:18:50.815Z,21.00
2022-08-17T01:21:28.341Z,20.90
2022-08-17T01:23:59.232Z,20.80
2022-08-17T01:26:29.513Z,20.70
2022-08-17T01:28:58.350Z,20.70
2022-08-17T01:31:31.627Z,20.60
2022-08-17T01:34:02.199Z,20.70
2022-08-17T01:36:31.494Z,20.70
2022-08-17T01:39:02.069Z,20.60
2022-08-17T01:41:31.282Z,20.60
2022-08-17T01:44:03.855Z,20.60
2022-08-17T01:46:36.074Z,20.70
2022-08-17T01:49:07.929Z,20.50
2022-08-17T01:51:36.509Z,20.40
2022-08-17T01:54:09.790Z,20.20
2022-08-17T01:56:43.322Z,20.10
2022-08-17T01:59:16.626Z,20.00
2022-08-17T02:01:45.801Z,19.90
2022-08-17T02:04:15.202Z,19.90
2022-08-17T02:06:52.533Z,19.80
2022-08-17T02:09:25.791Z,19.80
2022-08-17T02:11:56.407Z,19.70
2022-08-17T02:14:26.158Z,19.70
2022-08-17T02:16:56.289Z,19.80
2022-08-17T02:19:25.116Z,19.90
2022-08-17T02:21:56.929Z,19.90
2022-08-17T02:24:59.469Z,19.90
2022-08-17T02:27:19.483Z,19.90
2022-08-17T02:29:48.867Z,19.80
2022-08-17T02:32:27.193Z,19.70
2022-08-17T02:34:57.218Z,19.60
2022-08-17T02:37:26.745Z,19.50
2022-08-17T02:40:09.530Z,19.40
2022-08-17T02:42:41.234Z,19.30
2022-08-17T02:45:24.472Z,19.20
2022-08-17T02:47:54.424Z,19.10
2022-08-17T02:50:24.626Z,19.10
2022-08-17T02:53:02.503Z,19.10
2022-08-17T02:55:38.110Z,19.00
2022-08-17T02:58:07.375Z,18.90
2022-08-17T03:00:38.188Z,18.90
2022-08-17T03:03:09.075Z,18.90
2022-08-17T03:05:39.398Z,18.90
2022-08-17T03:08:13.115Z,18.80
2022-08-17T03:10:45.026Z,18.80
2022-08-17T03:13:15.106Z,18.80
2022-08-17T03:15:46.332Z,18.80
2022-08-17T03:18:24.257Z,18.80
2022-08-17T03:20:56.146Z,18.80
2022-08-17T03:23:25.616Z,18.80
2022-08-17T03:25:57.172Z,18.80
2022-08-17T03:28:26.714Z,18.90
2022-08-17T03:30:55.677Z,18.90
2022-08-17T03:33:24.660Z,18.90
2022-08-17T03:35:53.936Z,19.00
2022-08-17T03:38:22.450Z,18.90
2022-08-17T03:40:57.442Z,18.80
2022-08-17T03:43:31.462Z,18.70
2022-08-17T03:46:32.393Z,18.70
2022-08-17T03:49:23.240Z,18.60
2022-08-17T03:52:09.615Z,18.60
2022-08-17T03:54:56.248Z,18.60
2022-08-17T03:57:26.232Z,18.50
2022-08-17T03:59:57.619Z,18.40
2022-08-17T04:02:30.147Z,18.40
2022-08-17T04:04:59.626Z,18.30
2022-08-17T04:07:31.469Z,18.40
2022-08-17T04:10:00.813Z,18.30
2022-08-17T04:12:44.177Z,18.30
2022-08-17T04:15:15.255Z,18.30
2022-08-17T04:17:44.913Z,18.30
2022-08-17T04:20:15.393Z,18.30
2022-08-17T04:22:58.265Z,18.20
2022-08-17T04:25:27.812Z,18.30
2022-08-17T04:27:57.118Z,18.30
2022-08-17T04:30:28.521Z,18.30
2022-08-17T04:33:05.977Z,18.30
2022-08-17T04:35:52.901Z,18.40
2022-08-17T04:38:24.134Z,18.40
2022-08-17T04:41:11.228Z,18.50
2022-08-17T04:43:41.868Z,18.60
2022-08-17T04:46:16.274Z,18.70
2022-08-17T04:48:47.706Z,18.70
2022-08-17T04:51:18.374Z,18.80
2022-08-17T04:53:53.851Z,18.90
2022-08-17T04:56:29.025Z,18.90
2022-08-17T04:58:59.811Z,19.00
2022-08-17T05:01:32.643Z,19.00
2022-08-17T05:04:32.947Z,19.10
2022-08-17T05:06:54.801Z,19.30
2022-08-17T05:09:23.912Z,19.80
2022-08-17T05:11:53.239Z,19.70
2022-08-17T05:14:33.069Z,19.80
2022-08-17T05:17:07.433Z,19.80
2022-08-17T05:19:41.720Z,20.00
2022-08-17T05:22:15.098Z,20.00
2022-08-17T05:24:53.879Z,20.10
2022-08-17T05:27:29.896Z,20.10
2022-08-17T05:30:04.160Z,20.10
2022-08-17T05:32:39.145Z,20.10
2022-08-17T05:35:10.112Z,20.20
2022-08-17T05:37:39.277Z,20.20
2022-08-17T05:40:10.167Z,20.20
2022-08-17T05:42:39.412Z,20.30
2022-08-17T05:45:08.666Z,20.50
2022-08-17T05:47:40.305Z,20.60
2022-08-17T05:50:10.377Z,20.60
2022-08-17T05:52:49.055Z,20.70
2022-08-17T05:55:32.074Z,20.80
2022-08-17T05:58:10.695Z,20.90
2022-08-17T06:00:46.515Z,20.90
2022-08-17T06:03:35.730Z,21.00
2022-08-17T06:06:18.519Z,21.10
2022-08-17T06:08:53.404Z,21.40
2022-08-17T06:11:30.199Z,21.70
2022-08-17T06:14:10.571Z,21.90
2022-08-17T06:16:42.541Z,22.00
2022-08-17T06:19:20.349Z,22.20
2022-08-17T06:21:52.780Z,22.40
2022-08-17T06:24:29.849Z,22.60
2022-08-17T06:27:08.160Z,22.80
2022-08-17T06:29:50.929Z,22.90
2022-08-17T06:32:19.796Z,23.00
2022-08-17T06:34:50.409Z,23.20
2022-08-17T06:37:35.590Z,23.30
2022-08-17T06:40:20.563Z,23.50
2022-08-17T06:43:05.283Z,23.70
2022-08-17T06:45:39.373Z,23.80
2022-08-17T06:48:14.770Z,24.00
2022-08-17T06:50:51.438Z,24.10
2022-08-17T06:53:26.786Z,24.20
2022-08-17T06:56:01.876Z,24.40
2022-08-17T06:58:33.592Z,24.40
2022-08-17T07:01:11.923Z,24.50
2022-08-17T07:03:47.525Z,24.60
2022-08-17T07:06:22.720Z,24.50
2022-08-17T07:08:57.047Z,24.60
2022-08-17T07:11:29.217Z,24.60
2022-08-17T07:14:17.178Z,24.70
2022-08-17T07:16:50.110Z,24.80
2022-08-17T07:19:23.085Z,24.70
2022-08-17T07:21:59.012Z,24.70
2022-08-17T07:24:37.473Z,24.70
2022-08-17T07:27:14.548Z,24.80
2022-08-17T07:29:48.325Z,24.60
2022-08-17T07:32:20.581Z,24.60
2022-08-17T07:35:11.725Z,24.60
2022-08-17T07:37:44.893Z,24.70
2022-08-17T07:40:35.752Z,24.70
2022-08-17T07:43:24.449Z,24.80
2022-08-17T07:46:23.048Z,24.90
2022-08-17T07:48:54.106Z,25.00
2022-08-17T07:51:27.011Z,25.10
2022-08-17T07:54:13.667Z,25.10
2022-08-17T07:56:46.494Z,25.10
2022-08-17T07:59:23.201Z,25.30
2022-08-17T08:02:21.697Z,25.30
2022-08-17T08:05:06.662Z,25.30
2022-08-17T08:07:42.782Z,25.40
2022-08-17T08:10:17.022Z,25.50
2022-08-17T08:12:47.566Z,25.60
2022-08-17T08:15:20.110Z,25.80
2022-08-17T08:17:53.532Z,25.90
2022-08-17T08:20:52.167Z,26.00
2022-08-17T08:23:27.362Z,26.00
2022-08-17T08:26:09.272Z,26.10
2022-08-17T08:28:50.470Z,26.00
2022-08-17T08:31:26.211Z,25.90
2022-08-17T08:34:09.346Z,26.00
2022-08-17T08:37:14.712Z,26.20
2022-08-17T08:39:57.918Z,26.20
2022-08-17T08:42:35.895Z,26.20
2022-08-17T08:45:13.820Z,26.10
2022-08-17T08:48:05.575Z,26.10
2022-08-17T08:50:47.837Z,26.20
2022-08-17T08:53:31.554Z,26.00
2022-08-17T08:56:07.975Z,26.00
2022-08-17T08:58:48.645Z,26.00
2022-08-17T09:01:25.188Z,26.10
2022-08-17T09:04:25.414Z,26.00
2022-08-17T09:07:06.642Z,25.90
2022-08-17T09:09:47.195Z,25.80
2022-08-17T09:12:28.644Z,25.80
2022-08-17T09:15:07.155Z,25.80
2022-08-17T09:17:43.673Z,25.70
2022-08-17T09:20:28.245Z,25.60
2022-08-17T09:23:04.680Z,25.60
2022-08-17T09:25:38.628Z,25.60
2022-08-17T09:28:10.493Z,25.60
2022-08-17T09:30:46.725Z,25.60
2022-08-17T09:33:23.241Z,25.50
2022-08-17T09:35:58.457Z,25.40
2022-08-17T09:38:35.402Z,25.20
2022-08-17T09:41:13.619Z,25.20
2022-08-17T09:43:48.237Z,25.30
2022-08-17T09:46:23.483Z,25.30
2022-08-17T09:48:59.177Z,25.30
2022-08-17T09:51:33.936Z,25.30
2022-08-17T09:54:34.857Z,25.40
2022-08-17T09:57:27.837Z,25.30
2022-08-17T10:00:13.430Z,25.20
2022-08-17T10:03:16.670Z,25.20
2022-08-17T10:05:56.286Z,25.20
2022-08-17T10:08:34.177Z,25.10
2022-08-17T10:11:18.603Z,25.00
2022-08-17T10:13:59.518Z,25.00
2022-08-17T10:16:37.401Z,24.80
2022-08-17T10:19:17.387Z,24.60
2022-08-17T10:22:32.961Z,24.60
2022-08-17T10:25:23.459Z,24.60
2022-08-17T10:27:59.422Z,24.60
2022-08-17T10:30:32.611Z,24.60
2022-08-17T10:33:04.458Z,24.50
2022-08-17T10:35:39.477Z,24.50
2022-08-17T10:38:31.504Z,24.40
2022-08-17T10:41:05.406Z,24.30
2022-08-17T10:43:55.755Z,24.30
2022-08-17T10:46:57.627Z,24.20
2022-08-17T10:49:34.201Z,24.10
2022-08-17T10:52:29.997Z,24.00
2022-08-17T10:55:16.424Z,24.00
2022-08-17T10:57:47.774Z,23.90
2022-08-17T11:01:12.884Z,23.80
2022-08-17T11:03:54.886Z,23.80
2022-08-17T11:06:33.497Z,23.80
2022-08-17T11:09:29.955Z,23.80
2022-08-17T11:12:13.178Z,23.80
2022-08-17T11:14:54.896Z,23.80
2022-08-17T11:17:42.163Z,23.70
2022-08-17T11:20:26.383Z,23.70
2022-08-17T11:23:35.603Z,23.70
2022-08-17T11:26:26.370Z,23.80
2022-08-17T11:29:00.394Z,23.80
2022-08-17T11:31:38.872Z,23.70
2022-08-17T11:34:19.001Z,23.60
2022-08-17T11:37:12.991Z,23.70
2022-08-17T11:40:15.969Z,23.80
2022-08-17T11:43:04.853Z,24.10
2022-08-17T11:46:02.609Z,24.50
2022-08-17T11:48:56.929Z,24.80
2022-08-17T11:51:46.654Z,25.20
2022-08-17T11:54:45.202Z,25.60
2022-08-17T11:58:06.132Z,26.20
2022-08-17T12:01:02.211Z,26.70
2022-08-17T12:03:58.817Z,27.20
2022-08-17T12:06:51.695Z,27.40
2022-08-17T12:09:24.934Z,27.90
2022-08-17T12:12:11.710Z,28.20
2022-08-17T12:15:09.535Z,27.90
2022-08-17T12:17:40.892Z,27.80
2022-08-17T12:20:15.251Z,28.00
2022-08-17T12:22:57.693Z,27.90
2022-08-17T12:25:33.844Z,28.20
2022-08-17T12:28:05.682Z,27.80
2022-08-17T12:30:36.629Z,27.40
2022-08-17T12:33:25.450Z,27.00
2022-08-17T12:36:04.245Z,26.70
2022-08-17T12:38:35.026Z,27.00
2022-08-17T12:41:27.013Z,27.00
2022-08-17T12:44:02.022Z,26.70
2022-08-17T12:46:35.314Z,26.80
2022-08-17T12:49:24.772Z,27.30
2022-08-17T12:52:01.833Z,28.10
2022-08-17T12:54:34.827Z,29.30
2022-08-17T12:57:11.205Z,29.80
2022-08-17T12:59:45.179Z,30.20
2022-08-17T13:02:23.442Z,31.00
2022-08-17T13:04:55.621Z,31.70
2022-08-17T13:07:32.471Z,31.30
2022-08-17T13:10:01.570Z,31.20
2022-08-17T13:12:35.525Z,30.70
2022-08-17T13:15:05.171Z,29.50
2022-08-17T13:17:38.324Z,28.50
2022-08-17T13:20:16.649Z,28.50
2022-08-17T13:22:53.633Z,28.90
2022-08-17T13:25:25.311Z,29.50
2022-08-17T13:27:56.713Z,29.90
2022-08-17T13:30:30.154Z,31.10
2022-08-17T13:33:04.695Z,31.60
2022-08-17T13:35:49.923Z,31.20
2022-08-17T13:38:38.221Z,30.60
2022-08-17T13:41:38.573Z,31.00
2022-08-17T13:44:33.551Z,30.70
2022-08-17T13:47:04.484Z,30.90
2022-08-17T13:49:42.004Z,30.40
2022-08-17T13:52:38.396Z,30.40
2022-08-17T13:55:10.654Z,30.00
2022-08-17T13:57:47.025Z,29.00
2022-08-17T14:00:21.279Z,28.30
2022-08-17T14:02:50.697Z,27.90
2022-08-17T14:05:20.772Z,27.50
2022-08-17T14:07:56.237Z,27.40
2022-08-17T14:10:29.071Z,27.40
2022-08-17T14:13:01.904Z,27.40
2022-08-17T14:18:18.402Z,30.00
2022-08-17T14:21:08.699Z,29.40
2022-08-17T14:23:39.920Z,28.70
2022-08-17T14:26:13.282Z,28.40
2022-08-17T14:28:56.433Z,28.00
2022-08-17T14:31:28.632Z,27.80
2022-08-17T14:33:59.139Z,27.70
2022-08-17T14:36:28.853Z,27.60
2022-08-17T14:39:00.117Z,27.30
2022-08-17T14:41:29.787Z,27.60
2022-08-17T14:44:12.002Z,28.50
2022-08-17T14:46:42.966Z,29.50
2022-08-17T14:49:19.825Z,30.80
2022-08-17T14:52:13.396Z,31.10
2022-08-17T14:54:45.951Z,30.10
2022-08-17T14:57:32.931Z,30.00
2022-08-17T15:00:31.392Z,29.60
2022-08-17T15:03:02.758Z,30.20
2022-08-17T15:05:48.383Z,31.30
2022-08-17T15:08:19.065Z,33.10
2022-08-17T15:14:39.179Z,33.80
2022-08-17T15:17:16.172Z,35.00
2022-08-17T15:19:55.769Z,33.70
2022-08-17T15:22:34.246Z,34.70
2022-08-17T15:25:07.870Z,35.10
2022-08-17T15:27:52.661Z,35.10
2022-08-17T15:30:38.543Z,34.80
2022-08-17T15:39:09.620Z,34.50
2022-08-17T15:48:48.330Z,34.30
2022-08-17T15:51:28.914Z,34.20
2022-08-17T15:55:12.074Z,33.80
2022-08-17T15:58:19.312Z,33.70
2022-08-17T16:19:51.400Z,34.30
2022-08-17T16:22:31.842Z,33.50
2022-08-17T16:25:04.156Z,32.90
2022-08-17T16:27:35.764Z,32.90
2022-08-17T16:30:05.519Z,32.70
2022-08-17T16:32:34.523Z,32.80
2022-08-17T16:35:04.660Z,32.70
2022-08-17T16:37:34.968Z,32.40
2022-08-17T16:40:07.691Z,32.00
2022-08-17T16:42:39.871Z,32.00
2022-08-17T16:45:13.269Z,31.00
2022-08-17T16:47:43.760Z,29.50
2022-08-17T16:50:14.079Z,28.90
2022-08-17T16:52:44.177Z,28.80
2022-08-17T16:55:13.931Z,28.60
2022-08-17T16:57:47.221Z,28.70
2022-08-17T17:00:21.239Z,28.90
2022-08-17T17:02:51.023Z,28.60
2022-08-17T17:05:33.226Z,28.40
2022-08-17T17:08:08.228Z,28.50
2022-08-17T17:10:42.203Z,28.00
2022-08-17T17:13:21.201Z,27.50
2022-08-17T17:15:57.248Z,27.10
2022-08-17T17:18:38.808Z,26.70
2022-08-17T17:21:14.189Z,26.50
2022-08-17T17:23:52.067Z,26.50
2022-08-17T17:26:38.901Z,26.60
2022-08-17T17:29:25.943Z,26.60
2022-08-17T17:32:06.424Z,26.30
2022-08-17T17:34:41.818Z,25.90
2022-08-17T17:37:16.105Z,25.80
2022-08-17T17:39:50.628Z,25.80
2022-08-17T17:42:23.886Z,25.80
2022-08-17T17:45:01.542Z,25.60
2022-08-17T17:47:31.640Z,25.50
2022-08-17T17:50:05.281Z,25.50
2022-08-17T17:52:41.276Z,25.60
2022-08-17T17:55:25.015Z,25.50
2022-08-17T17:58:04.584Z,25.50
2022-08-17T18:01:21.716Z,25.50
2022-08-17T18:04:17.573Z,25.40
2022-08-17T18:07:00.987Z,25.10
2022-08-17T18:18:03.748Z,24.80
2022-08-17T18:21:14.887Z,24.70
2022-08-17T18:26:14.583Z,24.50
2022-08-17T18:32:01.915Z,24.40
2022-08-17T18:35:35.552Z,24.10
2022-08-17T18:39:28.822Z,24.00
2022-08-17T18:42:52.468Z,23.90
2022-08-17T18:46:29.995Z,23.80
2022-08-17T18:52:56.762Z,23.60
2022-08-17T18:55:49.558Z,23.50
2022-08-17T19:02:24.224Z,23.40
2022-08-17T19:05:42.617Z,23.20
2022-08-17T19:13:31.673Z,23.20
2022-08-17T19:16:33.871Z,23.20
2022-08-17T19:28:04.675Z,23.30
2022-08-17T19:31:18.284Z,23.30
2022-08-17T19:34:49.329Z,23.20
2022-08-17T19:43:06.483Z,22.90
2022-08-17T19:52:29.766Z,22.50
2022-08-17T20:00:22.042Z,22.10
2022-08-17T20:15:04.990Z,21.90
2022-08-17T20:18:47.587Z,22.00
2022-08-17T20:22:16.467Z,21.80
2022-08-17T20:25:05.422Z,21.60
2022-08-17T20:36:53.638Z,21.30
2022-08-17T20:40:22.004Z,21.00
2022-08-17T20:47:50.453Z,20.80
2022-08-17T20:55:52.338Z,20.60
2022-08-17T21:07:43.019Z,20.30
2022-08-17T21:09:34.370Z,20.40
2022-08-17T21:12:19.742Z,20.30
2022-08-17T21:15:28.482Z,20.20
2022-08-17T21:18:16.655Z,20.10
2022-08-17T21:21:04.434Z,20.10
2022-08-17T21:24:20.984Z,20.10
2022-08-17T21:27:01.622Z,20.30
2022-08-17T21:29:40.235Z,20.30
2022-08-17T21:32:40.490Z,20.10
2022-08-17T21:35:53.952Z,20.10
2022-08-17T21:38:46.895Z,20.20
2022-08-17T21:41:42.327Z,20.20
2022-08-17T21:44:22.115Z,20.20
2022-08-17T21:46:54.004Z,20.10
2022-08-17T21:49:34.966Z,20.00
2022-08-17T21:52:15.943Z,20.10
2022-08-17T21:55:00.239Z,20.10
2022-08-17T21:57:38.903Z,20.10
2022-08-17T22:00:17.262Z,20.10
2022-08-17T22:03:00.496Z,20.10
2022-08-17T22:05:51.154Z,19.90
2022-08-17T22:17:50.300Z,19.80
2022-08-17T22:20:29.943Z,19.50
2022-08-17T22:23:32.454Z,19.50
2022-08-17T22:26:04.279Z,19.50
2022-08-17T22:28:46.301Z,19.40
2022-08-17T22:31:17.022Z,19.60
2022-08-17T22:33:49.620Z,19.50
2022-08-17T22:36:25.238Z,19.40
2022-08-17T22:38:56.589Z,19.30
2022-08-17T22:41:41.682Z,19.30
2022-08-17T22:44:20.805Z,19.40
2022-08-17T22:46:54.523Z,19.30
2022-08-17T22:49:29.457Z,19.30
2022-08-17T22:52:04.505Z,19.10
2022-08-17T22:54:50.642Z,19.00
2022-08-17T22:57:51.705Z,18.90
2022-08-17T23:00:34.674Z,19.00
2022-08-17T23:03:10.664Z,19.00
2022-08-17T23:05:45.111Z,18.80
2022-08-17T23:08:14.608Z,18.60
2022-08-17T23:10:45.476Z,18.40
2022-08-17T23:13:14.008Z,18.30
2022-08-17T23:15:43.179Z,18.10
2022-08-17T23:18:12.112Z,18.00
2022-08-17T23:20:42.787Z,17.90
2022-08-17T23:23:12.671Z,18.00
2022-08-17T23:25:44.745Z,18.00
2022-08-17T23:28:13.728Z,18.10
2022-08-17T23:30:45.153Z,18.20
2022-08-17T23:33:21.395Z,18.10
2022-08-17T23:35:51.260Z,18.00
2022-08-17T23:38:19.830Z,17.80
2022-08-17T23:40:48.290Z,17.60
2022-08-17T23:43:25.255Z,17.50
2022-08-17T23:45:59.726Z,17.40
2022-08-17T23:48:35.640Z,17.40
2022-08-17T23:51:11.645Z,17.30
2022-08-17T23:53:46.480Z,17.20
2022-08-17T23:56:15.789Z,17.20
2022-08-17T23:58:46.361Z,17.20
